sensor_id;sensor_type;location;lat;lon;timestamp;temperature;humidity
6256;DHT22;3161;48.794;9.784;2022-10-30T00:01:09;13.60;99.90
6256;DHT22;3161;48.794;9.784;2022-10-30T00:03:37;13.60;99.90
6256;DHT22;3161;48.794;9.784;2022-10-30T00:06:05;13.50;99.90
6256;DHT22;3161;48.794;9.784;2022-10-30T00:08:33;13.50;99.90
6256;DHT22;3161;48.794;9.784;2022-10-30T00:11:11;13.50;99.90
6256;DHT22;3161;48.794;9.784;2022-10-30T00:13:41;13.50;99.90
6256;DHT22;3161;48.794;9.784;2022-10-30T00:16:09;13.40;99.90
6256;DHT22;3161;48.794;9.784;2022-10-30T00:18:38;13.40;99.90
6256;DHT22;3161;48.794;9.784;2022-10-30T00:21:10;13.30;99.90
6256;DHT22;3161;48.794;9.784;2022-10-30T00:23:38;13.40;99.90
6256;DHT22;3161;48.794;9.784;2022-10-30T00:26:07;13.30;99.90
6256;DHT22;3161;48.794;9.784;2022-10-30T00:28:34;13.30;99.90
6256;DHT22;3161;48.794;9.784;2022-10-30T00:31:03;13.30;99.90
6256;DHT22;3161;48.794;9.784;2022-10-30T00:33:31;13.30;99.90
6256;DHT22;3161;48.794;9.784;2022-10-30T00:35:59;13.30;99.90
6256;DHT22;3161;48.794;9.784;2022-10-30T00:38:27;13.20;99.90
6256;DHT22;3161;48.794;9.784;2022-10-30T00:40:55;13.20;99.90
6256;DHT22;3161;48.794;9.784;2022-10-30T00:43:37;13.20;99.90
6256;DHT22;3161;48.794;9.784;2022-10-30T00:46:27;13.20;99.90
6256;DHT22;3161;48.794;9.784;2022-10-30T00:49:11;13.20;99.90
6256;DHT22;3161;48.794;9.784;2022-10-30T00:51:41;13.10;99.90
6256;DHT22;3161;48.794;9.784;2022-10-30T00:54:09;13.10;99.90
6256;DHT22;3161;48.794;9.784;2022-10-30T00:56:38;13.10;99.90
6256;DHT22;3161;48.794;9.784;2022-10-30T00:59:08;13.10;99.90
6256;DHT22;3161;48.794;9.784;2022-10-30T01:01:39;13.10;99.90
6256;DHT22;3161;48.794;9.784;2022-10-30T01:04:07;13.10;99.90
6256;DHT22;3161;48.794;9.784;2022-10-30T01:06:37;13.00;99.90
6256;DHT22;3161;48.794;9.784;2022-10-30T01:09:05;13.00;99.90
6256;DHT22;3161;48.794;9.784;2022-10-30T01:11:33;13.00;99.90
6256;DHT22;3161;48.794;9.784;2022-10-30T01:14:03;13.00;99.90
6256;DHT22;3161;48.794;9.784;2022-10-30T01:19:17;12.90;99.90
6256;DHT22;3161;48.794;9.784;2022-10-30T01:21:52;12.90;99.90
6256;DHT22;3161;48.794;9.784;2022-10-30T01:24:48;12.90;99.90
6256;DHT22;3161;48.794;9.784;2022-10-30T01:27:29;12.90;99.90
6256;DHT22;3161;48.794;9.784;2022-10-30T01:32:52;12.80;99.90
6256;DHT22;3161;48.794;9.784;2022-10-30T01:35:37;12.80;99.90
6256;DHT22;3161;48.794;9.784;2022-10-30T01:38:27;12.80;99.90
6256;DHT22;3161;48.794;9.784;2022-10-30T01:40:54;12.80;99.90
6256;DHT22;3161;48.794;9.784;2022-10-30T01:43:21;12.70;99.90
6256;DHT22;3161;48.794;9.784;2022-10-30T01:59:14;12.60;99.90
6256;DHT22;3161;48.794;9.784;2022-10-30T02:01:42;12.50;99.90
6256;DHT22;3161;48.794;9.784;2022-10-30T02:04:11;12.50;99.90
6256;DHT22;3161;48.794;9.784;2022-10-30T02:06:39;12.50;99.90
6256;DHT22;3161;48.794;9.784;2022-10-30T02:09:07;12.50;99.90
6256;DHT22;3161;48.794;9.784;2022-10-30T02:11:36;12.50;99.90
6256;DHT22;3161;48.794;9.784;2022-10-30T02:14:06;12.50;99.90
6256;DHT22;3161;48.794;9.784;2022-10-30T02:16:40;12.50;99.90
6256;DHT22;3161;48.794;9.784;2022-10-30T02:19:06;12.50;99.90
6256;DHT22;3161;48.794;9.784;2022-10-30T02:21:34;12.50;99.90
6256;DHT22;3161;48.794;9.784;2022-10-30T02:24:01;12.40;99.90
6256;DHT22;3161;48.794;9.784;2022-10-30T02:26:29;12.40;99.90
6256;DHT22;3161;48.794;9.784;2022-10-30T02:28:56;12.40;99.90
6256;DHT22;3161;48.794;9.784;2022-10-30T02:31:24;12.40;99.90
6256;DHT22;3161;48.794;9.784;2022-10-30T02:33:51;12.40;99.90
6256;DHT22;3161;48.794;9.784;2022-10-30T02:36:19;12.40;99.90
6256;DHT22;3161;48.794;9.784;2022-10-30T02:38:46;12.40;99.90
6256;DHT22;3161;48.794;9.784;2022-10-30T02:41:14;12.40;99.90
6256;DHT22;3161;48.794;9.784;2022-10-30T02:43:41;12.40;99.90
6256;DHT22;3161;48.794;9.784;2022-10-30T02:46:09;12.40;99.90
6256;DHT22;3161;48.794;9.784;2022-10-30T02:48:36;12.30;99.90
6256;DHT22;3161;48.794;9.784;2022-10-30T02:51:04;12.30;99.90
6256;DHT22;3161;48.794;9.784;2022-10-30T02:53:33;12.30;99.90
6256;DHT22;3161;48.794;9.784;2022-10-30T02:56:06;12.30;99.90
6256;DHT22;3161;48.794;9.784;2022-10-30T02:58:34;12.30;99.90
6256;DHT22;3161;48.794;9.784;2022-10-30T03:01:12;12.20;99.90
6256;DHT22;3161;48.794;9.784;2022-10-30T03:03:36;12.20;99.90
6256;DHT22;3161;48.794;9.784;2022-10-30T03:06:05;12.20;99.90
6256;DHT22;3161;48.794;9.784;2022-10-30T03:08:33;12.20;99.90
6256;DHT22;3161;48.794;9.784;2022-10-30T03:11:08;12.20;99.90
6256;DHT22;3161;48.794;9.784;2022-10-30T03:13:32;12.20;99.90
6256;DHT22;3161;48.794;9.784;2022-10-30T03:16:10;12.10;99.90
6256;DHT22;3161;48.794;9.784;2022-10-30T03:18:34;12.20;99.90
6256;DHT22;3161;48.794;9.784;2022-10-30T03:21:04;12.10;99.90
6256;DHT22;3161;48.794;9.784;2022-10-30T03:23:33;12.10;99.90
6256;DHT22;3161;48.794;9.784;2022-10-30T03:26:01;11.30;99.90
6256;DHT22;3161;48.794;9.784;2022-10-30T03:28:30;12.10;99.90
6256;DHT22;3161;48.794;9.784;2022-10-30T03:31:00;12.10;99.90
6256;DHT22;3161;48.794;9.784;2022-10-30T03:33:28;12.10;99.90
6256;DHT22;3161;48.794;9.784;2022-10-30T03:35:55;12.10;99.90
6256;DHT22;3161;48.794;9.784;2022-10-30T03:38:23;12.10;99.90
6256;DHT22;3161;48.794;9.784;2022-10-30T03:40:51;12.10;99.90
6256;DHT22;3161;48.794;9.784;2022-10-30T03:43:19;12.10;99.90
6256;DHT22;3161;48.794;9.784;2022-10-30T03:45:48;12.10;99.90
6256;DHT22;3161;48.794;9.784;2022-10-30T03:48:17;12.00;99.90
6256;DHT22;3161;48.794;9.784;2022-10-30T03:50:45;12.00;99.90
6256;DHT22;3161;48.794;9.784;2022-10-30T03:53:14;12.00;99.90
6256;DHT22;3161;48.794;9.784;2022-10-30T03:55:42;12.00;99.90
6256;DHT22;3161;48.794;9.784;2022-10-30T03:58:09;12.00;99.90
6256;DHT22;3161;48.794;9.784;2022-10-30T04:00:37;12.00;99.90
6256;DHT22;3161;48.794;9.784;2022-10-30T04:03:08;12.00;99.90
6256;DHT22;3161;48.794;9.784;2022-10-30T04:05:37;12.00;99.90
6256;DHT22;3161;48.794;9.784;2022-10-30T04:08:06;12.00;99.90
6256;DHT22;3161;48.794;9.784;2022-10-30T04:10:35;12.00;99.90
6256;DHT22;3161;48.794;9.784;2022-10-30T04:13:04;12.00;99.90
6256;DHT22;3161;48.794;9.784;2022-10-30T04:15:33;12.00;99.90
6256;DHT22;3161;48.794;9.784;2022-10-30T04:18:00;12.00;99.90
6256;DHT22;3161;48.794;9.784;2022-10-30T04:20:28;11.90;99.90
6256;DHT22;3161;48.794;9.784;2022-10-30T04:22:57;11.90;99.90
6256;DHT22;3161;48.794;9.784;2022-10-30T04:25:26;11.90;99.90
6256;DHT22;3161;48.794;9.784;2022-10-30T04:27:54;11.90;99.90
6256;DHT22;3161;48.794;9.784;2022-10-30T04:30:22;11.90;99.90
6256;DHT22;3161;48.794;9.784;2022-10-30T04:32:54;11.90;99.90
6256;DHT22;3161;48.794;9.784;2022-10-30T04:35:24;11.90;99.90
6256;DHT22;3161;48.794;9.784;2022-10-30T04:37:56;11.90;99.90
6256;DHT22;3161;48.794;9.784;2022-10-30T04:40:25;11.90;99.90
6256;DHT22;3161;48.794;9.784;2022-10-30T04:42:53;11.90;99.90
6256;DHT22;3161;48.794;9.784;2022-10-30T04:45:21;11.90;99.90
6256;DHT22;3161;48.794;9.784;2022-10-30T04:47:49;11.90;99.90
6256;DHT22;3161;48.794;9.784;2022-10-30T04:50:17;11.90;99.90
6256;DHT22;3161;48.794;9.784;2022-10-30T04:52:45;11.80;99.90
6256;DHT22;3161;48.794;9.784;2022-10-30T04:55:12;11.80;99.90
6256;DHT22;3161;48.794;9.784;2022-10-30T04:57:40;11.80;99.90
6256;DHT22;3161;48.794;9.784;2022-10-30T05:00:09;11.80;99.90
6256;DHT22;3161;48.794;9.784;2022-10-30T05:02:37;11.80;99.90
6256;DHT22;3161;48.794;9.784;2022-10-30T05:05:05;11.80;99.90
6256;DHT22;3161;48.794;9.784;2022-10-30T05:07:32;11.80;99.90
6256;DHT22;3161;48.794;9.784;2022-10-30T05:10:00;11.70;99.90
6256;DHT22;3161;48.794;9.784;2022-10-30T05:12:27;11.70;99.90
6256;DHT22;3161;48.794;9.784;2022-10-30T05:14:55;11.70;99.90
6256;DHT22;3161;48.794;9.784;2022-10-30T05:17:22;11.70;99.90
6256;DHT22;3161;48.794;9.784;2022-10-30T05:19:50;11.70;99.90
6256;DHT22;3161;48.794;9.784;2022-10-30T05:22:17;11.70;99.90
6256;DHT22;3161;48.794;9.784;2022-10-30T05:24:45;11.60;99.90
6256;DHT22;3161;48.794;9.784;2022-10-30T05:27:12;11.60;99.90
6256;DHT22;3161;48.794;9.784;2022-10-30T05:29:40;11.60;99.90
6256;DHT22;3161;48.794;9.784;2022-10-30T05:32:07;11.60;99.90
6256;DHT22;3161;48.794;9.784;2022-10-30T05:34:35;11.60;99.90
6256;DHT22;3161;48.794;9.784;2022-10-30T05:37:02;11.50;99.90
6256;DHT22;3161;48.794;9.784;2022-10-30T05:39:30;11.50;99.90
6256;DHT22;3161;48.794;9.784;2022-10-30T05:41:57;11.50;99.90
6256;DHT22;3161;48.794;9.784;2022-10-30T05:44:25;11.50;99.90
6256;DHT22;3161;48.794;9.784;2022-10-30T05:46:52;11.50;99.90
6256;DHT22;3161;48.794;9.784;2022-10-30T05:49:20;11.50;99.90
6256;DHT22;3161;48.794;9.784;2022-10-30T05:51:47;11.40;99.90
6256;DHT22;3161;48.794;9.784;2022-10-30T05:54:15;11.40;99.90
6256;DHT22;3161;48.794;9.784;2022-10-30T05:56:42;11.50;99.90
6256;DHT22;3161;48.794;9.784;2022-10-30T05:59:10;11.40;99.90
6256;DHT22;3161;48.794;9.784;2022-10-30T06:01:37;11.40;99.90
6256;DHT22;3161;48.794;9.784;2022-10-30T06:04:05;11.40;99.90
6256;DHT22;3161;48.794;9.784;2022-10-30T06:06:32;11.40;99.90
6256;DHT22;3161;48.794;9.784;2022-10-30T06:09:00;11.40;99.90
6256;DHT22;3161;48.794;9.784;2022-10-30T06:11:27;11.40;99.90
6256;DHT22;3161;48.794;9.784;2022-10-30T06:13:55;11.40;99.90
6256;DHT22;3161;48.794;9.784;2022-10-30T06:16:22;11.40;99.90
6256;DHT22;3161;48.794;9.784;2022-10-30T06:18:50;11.40;99.90
6256;DHT22;3161;48.794;9.784;2022-10-30T06:21:17;11.40;99.90
6256;DHT22;3161;48.794;9.784;2022-10-30T06:23:46;11.40;99.90
6256;DHT22;3161;48.794;9.784;2022-10-30T06:26:15;11.30;99.90
6256;DHT22;3161;48.794;9.784;2022-10-30T06:28:42;11.30;99.90
6256;DHT22;3161;48.794;9.784;2022-10-30T06:31:09;11.30;99.90
6256;DHT22;3161;48.794;9.784;2022-10-30T06:33:37;11.30;99.90
6256;DHT22;3161;48.794;9.784;2022-10-30T06:36:05;11.30;99.90
6256;DHT22;3161;48.794;9.784;2022-10-30T06:38:32;11.30;99.90
6256;DHT22;3161;48.794;9.784;2022-10-30T06:41:00;11.30;99.90
6256;DHT22;3161;48.794;9.784;2022-10-30T06:43:28;11.30;99.90
6256;DHT22;3161;48.794;9.784;2022-10-30T06:45:57;11.30;99.90
6256;DHT22;3161;48.794;9.784;2022-10-30T06:48:24;11.30;99.90
6256;DHT22;3161;48.794;9.784;2022-10-30T06:50:59;11.30;99.90
6256;DHT22;3161;48.794;9.784;2022-10-30T06:53:28;11.30;99.90
6256;DHT22;3161;48.794;9.784;2022-10-30T06:56:00;11.30;99.90
6256;DHT22;3161;48.794;9.784;2022-10-30T06:58:29;11.30;99.90
6256;DHT22;3161;48.794;9.784;2022-10-30T07:00:58;11.40;99.90
6256;DHT22;3161;48.794;9.784;2022-10-30T07:03:26;11.40;99.90
6256;DHT22;3161;48.794;9.784;2022-10-30T07:05:54;11.40;99.90
6256;DHT22;3161;48.794;9.784;2022-10-30T07:08:21;11.50;99.90
6256;DHT22;3161;48.794;9.784;2022-10-30T07:10:49;11.50;99.90
6256;DHT22;3161;48.794;9.784;2022-10-30T07:13:17;11.50;99.90
6256;DHT22;3161;48.794;9.784;2022-10-30T07:15:44;11.60;99.90
6256;DHT22;3161;48.794;9.784;2022-10-30T07:18:12;11.60;99.90
6256;DHT22;3161;48.794;9.784;2022-10-30T07:20:39;11.60;99.90
6256;DHT22;3161;48.794;9.784;2022-10-30T07:23:07;11.70;99.90
6256;DHT22;3161;48.794;9.784;2022-10-30T07:25:34;11.80;99.90
6256;DHT22;3161;48.794;9.784;2022-10-30T07:28:02;11.80;99.90
6256;DHT22;3161;48.794;9.784;2022-10-30T07:30:30;11.80;99.90
6256;DHT22;3161;48.794;9.784;2022-10-30T07:32:58;11.90;99.90
6256;DHT22;3161;48.794;9.784;2022-10-30T07:35:27;12.00;99.90
6256;DHT22;3161;48.794;9.784;2022-10-30T07:37:55;12.10;99.90
6256;DHT22;3161;48.794;9.784;2022-10-30T07:40:22;12.10;99.90
6256;DHT22;3161;48.794;9.784;2022-10-30T07:42:58;12.20;99.90
6256;DHT22;3161;48.794;9.784;2022-10-30T07:45:27;12.20;99.90
6256;DHT22;3161;48.794;9.784;2022-10-30T07:47:55;12.30;99.90
6256;DHT22;3161;48.794;9.784;2022-10-30T07:50:23;12.30;99.90
6256;DHT22;3161;48.794;9.784;2022-10-30T07:52:51;12.40;99.90
6256;DHT22;3161;48.794;9.784;2022-10-30T07:55:18;12.50;99.90
6256;DHT22;3161;48.794;9.784;2022-10-30T07:57:46;12.60;99.90
6256;DHT22;3161;48.794;9.784;2022-10-30T08:00:14;12.60;99.90
6256;DHT22;3161;48.794;9.784;2022-10-30T08:02:42;12.70;99.90
6256;DHT22;3161;48.794;9.784;2022-10-30T08:05:10;12.80;99.90
6256;DHT22;3161;48.794;9.784;2022-10-30T08:07:37;12.90;99.90
6256;DHT22;3161;48.794;9.784;2022-10-30T08:10:06;13.00;99.90
6256;DHT22;3161;48.794;9.784;2022-10-30T08:12:35;13.20;99.90
6256;DHT22;3161;48.794;9.784;2022-10-30T08:15:05;13.30;99.90
6256;DHT22;3161;48.794;9.784;2022-10-30T08:17:42;13.40;99.90
6256;DHT22;3161;48.794;9.784;2022-10-30T08:20:11;13.50;99.90
6256;DHT22;3161;48.794;9.784;2022-10-30T08:22:46;13.70;99.90
6256;DHT22;3161;48.794;9.784;2022-10-30T08:25:15;13.80;99.90
6256;DHT22;3161;48.794;9.784;2022-10-30T08:30:19;14.20;99.90
6256;DHT22;3161;48.794;9.784;2022-10-30T08:32:46;14.50;99.90
6256;DHT22;3161;48.794;9.784;2022-10-30T08:35:14;14.80;99.90
6256;DHT22;3161;48.794;9.784;2022-10-30T08:37:42;15.20;99.90
6256;DHT22;3161;48.794;9.784;2022-10-30T08:40:32;15.60;99.90
6256;DHT22;3161;48.794;9.784;2022-10-30T08:42:57;16.00;99.90
6256;DHT22;3161;48.794;9.784;2022-10-30T08:45:24;16.30;99.90
6256;DHT22;3161;48.794;9.784;2022-10-30T08:47:57;16.60;99.90
6256;DHT22;3161;48.794;9.784;2022-10-30T08:50:25;16.70;99.90
6256;DHT22;3161;48.794;9.784;2022-10-30T08:52:52;16.80;99.90
6256;DHT22;3161;48.794;9.784;2022-10-30T08:55:20;16.80;99.90
6256;DHT22;3161;48.794;9.784;2022-10-30T08:57:47;16.90;99.90
6256;DHT22;3161;48.794;9.784;2022-10-30T09:00:15;17.00;99.90
6256;DHT22;3161;48.794;9.784;2022-10-30T09:02:43;17.10;99.90
6256;DHT22;3161;48.794;9.784;2022-10-30T09:05:10;17.20;99.90
6256;DHT22;3161;48.794;9.784;2022-10-30T09:07:38;17.30;99.90
6256;DHT22;3161;48.794;9.784;2022-10-30T09:10:06;17.30;99.90
6256;DHT22;3161;48.794;9.784;2022-10-30T09:12:34;17.40;99.90
6256;DHT22;3161;48.794;9.784;2022-10-30T09:15:01;17.50;99.90
6256;DHT22;3161;48.794;9.784;2022-10-30T09:17:29;17.60;99.90
6256;DHT22;3161;48.794;9.784;2022-10-30T09:19:57;17.70;99.90
6256;DHT22;3161;48.794;9.784;2022-10-30T09:22:24;17.80;99.90
6256;DHT22;3161;48.794;9.784;2022-10-30T09:24:52;17.80;99.90
6256;DHT22;3161;48.794;9.784;2022-10-30T09:27:19;17.90;99.90
6256;DHT22;3161;48.794;9.784;2022-10-30T09:29:47;18.00;99.90
6256;DHT22;3161;48.794;9.784;2022-10-30T09:32:14;18.00;99.90
6256;DHT22;3161;48.794;9.784;2022-10-30T09:34:42;18.10;99.90
6256;DHT22;3161;48.794;9.784;2022-10-30T09:37:09;18.20;99.90
6256;DHT22;3161;48.794;9.784;2022-10-30T09:39:37;18.30;99.90
6256;DHT22;3161;48.794;9.784;2022-10-30T09:42:30;18.30;99.90
6256;DHT22;3161;48.794;9.784;2022-10-30T09:45:10;18.40;99.90
6256;DHT22;3161;48.794;9.784;2022-10-30T09:47:55;18.50;99.90
6256;DHT22;3161;48.794;9.784;2022-10-30T09:50:24;18.60;99.90
6256;DHT22;3161;48.794;9.784;2022-10-30T09:53:21;18.60;99.90
6256;DHT22;3161;48.794;9.784;2022-10-30T10:01:21;19.00;99.90
6256;DHT22;3161;48.794;9.784;2022-10-30T10:06:53;19.30;99.90
6256;DHT22;3161;48.794;9.784;2022-10-30T10:09:21;19.40;99.90
6256;DHT22;3161;48.794;9.784;2022-10-30T10:12:08;19.50;99.90
6256;DHT22;3161;48.794;9.784;2022-10-30T10:14:34;19.60;99.90
6256;DHT22;3161;48.794;9.784;2022-10-30T10:17:03;19.70;99.90
6256;DHT22;3161;48.794;9.784;2022-10-30T10:19:57;19.80;99.90
6256;DHT22;3161;48.794;9.784;2022-10-30T10:22:24;19.90;99.90
6256;DHT22;3161;48.794;9.784;2022-10-30T10:24:52;19.40;99.90
6256;DHT22;3161;48.794;9.784;2022-10-30T10:30:16;20.30;99.90
6256;DHT22;3161;48.794;9.784;2022-10-30T10:36:01;20.60;99.90
6256;DHT22;3161;48.794;9.784;2022-10-30T10:38:42;20.70;99.90
6256;DHT22;3161;48.794;9.784;2022-10-30T10:50:00;21.20;99.90
6256;DHT22;3161;48.794;9.784;2022-10-30T10:52:36;21.30;99.90
6256;DHT22;3161;48.794;9.784;2022-10-30T10:55:12;21.50;99.90
6256;DHT22;3161;48.794;9.784;2022-10-30T10:57:37;21.60;99.90
6256;DHT22;3161;48.794;9.784;2022-10-30T11:00:18;21.70;99.90
6256;DHT22;3161;48.794;9.784;2022-10-30T11:02:55;21.80;99.90
6256;DHT22;3161;48.794;9.784;2022-10-30T11:05:29;21.90;99.90
6256;DHT22;3161;48.794;9.784;2022-10-30T11:07:58;22.00;99.90
6256;DHT22;3161;48.794;9.784;2022-10-30T11:10:26;22.10;99.90
6256;DHT22;3161;48.794;9.784;2022-10-30T11:12:53;22.20;99.90
6256;DHT22;3161;48.794;9.784;2022-10-30T11:15:36;22.30;99.90
6256;DHT22;3161;48.794;9.784;2022-10-30T11:18:06;22.40;99.90
6256;DHT22;3161;48.794;9.784;2022-10-30T11:23:30;22.60;99.90
6256;DHT22;3161;48.794;9.784;2022-10-30T11:26:00;22.80;99.90
6256;DHT22;3161;48.794;9.784;2022-10-30T11:28:38;22.90;99.90
6256;DHT22;3161;48.794;9.784;2022-10-30T11:31:21;23.00;99.90
6256;DHT22;3161;48.794;9.784;2022-10-30T11:33:50;23.20;99.90
6256;DHT22;3161;48.794;9.784;2022-10-30T11:36:23;23.30;99.90
6256;DHT22;3161;48.794;9.784;2022-10-30T11:38:51;23.40;99.90
6256;DHT22;3161;48.794;9.784;2022-10-30T11:41:20;23.50;99.90
6256;DHT22;3161;48.794;9.784;2022-10-30T11:43:48;23.60;99.90
6256;DHT22;3161;48.794;9.784;2022-10-30T11:46:21;23.80;99.90
6256;DHT22;3161;48.794;9.784;2022-10-30T11:48:49;23.80;99.90
6256;DHT22;3161;48.794;9.784;2022-10-30T11:51:41;24.00;99.90
6256;DHT22;3161;48.794;9.784;2022-10-30T11:53:50;24.00;99.90
6256;DHT22;3161;48.794;9.784;2022-10-30T11:56:22;24.20;99.90
6256;DHT22;3161;48.794;9.784;2022-10-30T12:01:38;24.50;99.90
6256;DHT22;3161;48.794;9.784;2022-10-30T12:04:24;24.70;99.90
6256;DHT22;3161;48.794;9.784;2022-10-30T12:07:18;24.80;99.90
6256;DHT22;3161;48.794;9.784;2022-10-30T12:09:23;25.00;99.90
6256;DHT22;3161;48.794;9.784;2022-10-30T12:11:50;25.10;99.90
6256;DHT22;3161;48.794;9.784;2022-10-30T12:14:23;25.20;99.90
6256;DHT22;3161;48.794;9.784;2022-10-30T12:16:54;25.40;99.90
6256;DHT22;3161;48.794;9.784;2022-10-30T12:19:23;25.40;99.90
6256;DHT22;3161;48.794;9.784;2022-10-30T12:21:53;25.40;99.90
6256;DHT22;3161;48.794;9.784;2022-10-30T12:24:29;25.40;99.90
6256;DHT22;3161;48.794;9.784;2022-10-30T12:27:10;25.40;99.90
6256;DHT22;3161;48.794;9.784;2022-10-30T12:29:42;25.40;99.90
6256;DHT22;3161;48.794;9.784;2022-10-30T12:32:16;25.50;99.90
6256;DHT22;3161;48.794;9.784;2022-10-30T12:34:47;25.50;99.90
6256;DHT22;3161;48.794;9.784;2022-10-30T12:37:28;25.60;99.90
6256;DHT22;3161;48.794;9.784;2022-10-30T12:40:17;25.80;99.90
6256;DHT22;3161;48.794;9.784;2022-10-30T12:43:11;26.00;99.90
6256;DHT22;3161;48.794;9.784;2022-10-30T12:45:25;26.30;99.90
6256;DHT22;3161;48.794;9.784;2022-10-30T12:48:05;26.70;99.90
6256;DHT22;3161;48.794;9.784;2022-10-30T12:50:42;27.10;99.90
6256;DHT22;3161;48.794;9.784;2022-10-30T12:53:37;27.70;99.90
6256;DHT22;3161;48.794;9.784;2022-10-30T12:56:11;28.30;99.90
6256;DHT22;3161;48.794;9.784;2022-10-30T12:58:43;28.60;99.90
6256;DHT22;3161;48.794;9.784;2022-10-30T13:01:34;28.90;99.90
6256;DHT22;3161;48.794;9.784;2022-10-30T13:09:33;29.70;99.50
6256;DHT22;3161;48.794;9.784;2022-10-30T13:12:15;30.00;98.50
6256;DHT22;3161;48.794;9.784;2022-10-30T13:14:54;30.40;97.10
6256;DHT22;3161;48.794;9.784;2022-10-30T13:17:22;30.60;97.40
6256;DHT22;3161;48.794;9.784;2022-10-30T13:19:50;30.50;96.60
6256;DHT22;3161;48.794;9.784;2022-10-30T13:22:38;30.30;96.20
6256;DHT22;3161;48.794;9.784;2022-10-30T13:30:21;30.40;96.80
6256;DHT22;3161;48.794;9.784;2022-10-30T13:33:08;30.60;95.70
6256;DHT22;3161;48.794;9.784;2022-10-30T13:38:50;30.10;94.30
6256;DHT22;3161;48.794;9.784;2022-10-30T13:41:35;29.50;95.70
6256;DHT22;3161;48.794;9.784;2022-10-30T13:46:57;28.20;97.40
6256;DHT22;3161;48.794;9.784;2022-10-30T13:52:03;27.30;99.90
6256;DHT22;3161;48.794;9.784;2022-10-30T13:54:36;26.90;99.90
6256;DHT22;3161;48.794;9.784;2022-10-30T14:02:33;26.00;99.90
6256;DHT22;3161;48.794;9.784;2022-10-30T14:05:25;25.90;99.90
6256;DHT22;3161;48.794;9.784;2022-10-30T14:07:47;25.70;99.90
6256;DHT22;3161;48.794;9.784;2022-10-30T14:15:32;25.30;99.90
6256;DHT22;3161;48.794;9.784;2022-10-30T14:20:51;25.20;99.90
6256;DHT22;3161;48.794;9.784;2022-10-30T14:28:34;25.70;99.90
6256;DHT22;3161;48.794;9.784;2022-10-30T14:31:07;26.20;99.90
6256;DHT22;3161;48.794;9.784;2022-10-30T14:33:52;26.50;99.90
6256;DHT22;3161;48.794;9.784;2022-10-30T14:41:30;26.60;99.90
6256;DHT22;3161;48.794;9.784;2022-10-30T14:44:18;26.30;99.90
6256;DHT22;3161;48.794;9.784;2022-10-30T14:52:21;25.20;99.90
6256;DHT22;3161;48.794;9.784;2022-10-30T15:00:40;23.90;99.90
6256;DHT22;3161;48.794;9.784;2022-10-30T15:05:55;23.20;99.90
6256;DHT22;3161;48.794;9.784;2022-10-30T15:11:26;22.60;99.90
6256;DHT22;3161;48.794;9.784;2022-10-30T15:13:58;22.30;99.90
6256;DHT22;3161;48.794;9.784;2022-10-30T15:16:28;22.10;99.90
6256;DHT22;3161;48.794;9.784;2022-10-30T15:19:02;21.90;99.90
6256;DHT22;3161;48.794;9.784;2022-10-30T15:21:30;21.60;99.90
6256;DHT22;3161;48.794;9.784;2022-10-30T15:24:00;21.50;99.90
6256;DHT22;3161;48.794;9.784;2022-10-30T15:26:33;21.30;99.90
6256;DHT22;3161;48.794;9.784;2022-10-30T15:28:59;21.10;99.90
6256;DHT22;3161;48.794;9.784;2022-10-30T15:31:28;20.90;99.90
6256;DHT22;3161;48.794;9.784;2022-10-30T15:33:56;20.70;99.90
6256;DHT22;3161;48.794;9.784;2022-10-30T15:36:33;20.60;99.90
6256;DHT22;3161;48.794;9.784;2022-10-30T15:39:14;20.40;99.90
6256;DHT22;3161;48.794;9.784;2022-10-30T15:41:46;20.20;99.90
6256;DHT22;3161;48.794;9.784;2022-10-30T15:44:18;20.10;99.90
6256;DHT22;3161;48.794;9.784;2022-10-30T15:46:47;19.90;99.90
6256;DHT22;3161;48.794;9.784;2022-10-30T15:49:24;19.80;99.90
6256;DHT22;3161;48.794;9.784;2022-10-30T15:51:49;19.60;99.90
6256;DHT22;3161;48.794;9.784;2022-10-30T15:54:18;19.50;99.90
6256;DHT22;3161;48.794;9.784;2022-10-30T15:56:48;19.40;99.90
6256;DHT22;3161;48.794;9.784;2022-10-30T15:59:21;19.30;99.90
6256;DHT22;3161;48.794;9.784;2022-10-30T16:01:51;19.10;99.90
6256;DHT22;3161;48.794;9.784;2022-10-30T16:04:18;19.00;99.90
6256;DHT22;3161;48.794;9.784;2022-10-30T16:06:54;18.90;99.90
6256;DHT22;3161;48.794;9.784;2022-10-30T16:09:23;18.80;99.90
6256;DHT22;3161;48.794;9.784;2022-10-30T16:11:53;18.70;99.90
6256;DHT22;3161;48.794;9.784;2022-10-30T16:14:24;18.60;99.90
6256;DHT22;3161;48.794;9.784;2022-10-30T16:16:52;18.50;99.90
6256;DHT22;3161;48.794;9.784;2022-10-30T16:19:22;18.40;99.90
6256;DHT22;3161;48.794;9.784;2022-10-30T16:21:51;18.40;99.90
6256;DHT22;3161;48.794;9.784;2022-10-30T16:24:29;18.20;99.90
6256;DHT22;3161;48.794;9.784;2022-10-30T16:27:04;18.10;99.90
6256;DHT22;3161;48.794;9.784;2022-10-30T16:29:33;18.10;99.90
6256;DHT22;3161;48.794;9.784;2022-10-30T16:32:02;18.00;99.90
6256;DHT22;3161;48.794;9.784;2022-10-30T16:34:33;17.90;99.90
6256;DHT22;3161;48.794;9.784;2022-10-30T16:37:02;17.80;99.90
6256;DHT22;3161;48.794;9.784;2022-10-30T16:39:31;17.80;99.90
6256;DHT22;3161;48.794;9.784;2022-10-30T16:41:59;17.70;99.90
6256;DHT22;3161;48.794;9.784;2022-10-30T16:44:34;17.60;99.90
6256;DHT22;3161;48.794;9.784;2022-10-30T16:49:54;17.50;99.90
6256;DHT22;3161;48.794;9.784;2022-10-30T16:52:20;17.40;99.90
6256;DHT22;3161;48.794;9.784;2022-10-30T16:54:52;17.30;99.90
6256;DHT22;3161;48.794;9.784;2022-10-30T16:57:22;17.20;99.90
6256;DHT22;3161;48.794;9.784;2022-10-30T16:59:51;17.20;99.90
6256;DHT22;3161;48.794;9.784;2022-10-30T17:02:22;17.10;99.90
6256;DHT22;3161;48.794;9.784;2022-10-30T17:04:52;17.00;99.90
6256;DHT22;3161;48.794;9.784;2022-10-30T17:07:23;17.00;99.90
6256;DHT22;3161;48.794;9.784;2022-10-30T17:09:51;16.90;99.90
6256;DHT22;3161;48.794;9.784;2022-10-30T17:12:27;16.80;99.90
6256;DHT22;3161;48.794;9.784;2022-10-30T17:17:37;16.70;99.90
6256;DHT22;3161;48.794;9.784;2022-10-30T17:22:50;16.60;99.90
6256;DHT22;3161;48.794;9.784;2022-10-30T17:25:38;16.50;99.90
6256;DHT22;3161;48.794;9.784;2022-10-30T17:28:06;16.40;99.90
6256;DHT22;3161;48.794;9.784;2022-10-30T17:30:39;16.30;99.90
6256;DHT22;3161;48.794;9.784;2022-10-30T17:33:35;16.30;99.90
6256;DHT22;3161;48.794;9.784;2022-10-30T17:36:04;16.20;99.90
6256;DHT22;3161;48.794;9.784;2022-10-30T17:38:32;16.10;99.90
6256;DHT22;3161;48.794;9.784;2022-10-30T17:41:00;16.10;99.90
6256;DHT22;3161;48.794;9.784;2022-10-30T17:43:30;16.00;99.90
6256;DHT22;3161;48.794;9.784;2022-10-30T17:45:59;16.00;99.90
6256;DHT22;3161;48.794;9.784;2022-10-30T17:48:28;15.90;99.90
6256;DHT22;3161;48.794;9.784;2022-10-30T17:50:56;15.90;99.90
6256;DHT22;3161;48.794;9.784;2022-10-30T17:53:25;15.90;99.90
6256;DHT22;3161;48.794;9.784;2022-10-30T17:56:04;15.80;99.90
6256;DHT22;3161;48.794;9.784;2022-10-30T17:58:32;15.80;99.90
6256;DHT22;3161;48.794;9.784;2022-10-30T18:00:59;15.70;99.90
6256;DHT22;3161;48.794;9.784;2022-10-30T18:03:27;15.70;99.90
6256;DHT22;3161;48.794;9.784;2022-10-30T18:05:55;15.60;99.90
6256;DHT22;3161;48.794;9.784;2022-10-30T18:08:24;15.60;99.90
6256;DHT22;3161;48.794;9.784;2022-10-30T18:10:51;15.50;99.90
6256;DHT22;3161;48.794;9.784;2022-10-30T18:13:19;15.50;99.90
6256;DHT22;3161;48.794;9.784;2022-10-30T18:15:57;15.50;99.90
6256;DHT22;3161;48.794;9.784;2022-10-30T18:18:25;15.40;99.90
6256;DHT22;3161;48.794;9.784;2022-10-30T18:20:52;15.40;99.90
6256;DHT22;3161;48.794;9.784;2022-10-30T18:23:22;15.30;99.90